sensor_id;sensor_type;location;lat;lon;timestamp;pressure;altitude;pressure_sealevel;temperature;humidity
40730;BME280;26418;50.070;8.436;2022-10-16T00:01:37;99707.69;;;14.27;100.00
40730;BME280;26418;50.070;8.436;2022-10-16T00:04:03;99702.75;;;14.29;100.00
40730;BME280;26418;50.070;8.436;2022-10-16T00:06:29;99710.97;;;14.42;100.00
40730;BME280;26418;50.070;8.436;2022-10-16T00:08:55;99709.84;;;14.43;100.00
40730;BME280;26418;50.070;8.436;2022-10-16T00:11:26;99702.69;;;14.38;100.00
40730;BME280;26418;50.070;8.436;2022-10-16T00:13:55;99700.88;;;14.42;100.00
40730;BME280;26418;50.070;8.436;2022-10-16T00:16:21;99710.97;;;14.42;100.00
40730;BME280;26418;50.070;8.436;2022-10-16T00:18:46;99712.59;;;14.43;100.00
40730;BME280;26418;50.070;8.436;2022-10-16T00:21:15;99717.81;;;14.48;100.00
40730;BME280;26418;50.070;8.436;2022-10-16T00:23:41;99719.75;;;14.48;100.00
40730;BME280;26418;50.070;8.436;2022-10-16T00:26:10;99709.53;;;14.44;100.00
40730;BME280;26418;50.070;8.436;2022-10-16T00:28:35;99714.50;;;14.42;100.00
40730;BME280;26418;50.070;8.436;2022-10-16T00:31:10;99711.78;;;14.42;100.00
40730;BME280;26418;50.070;8.436;2022-10-16T00:33:37;99705.00;;;14.49;100.00
40730;BME280;26418;50.070;8.436;2022-10-16T00:36:04;99705.81;;;14.49;100.00
40730;BME280;26418;50.070;8.436;2022-10-16T00:38:30;99698.97;;;14.43;100.00
40730;BME280;26418;50.070;8.436;2022-10-16T00:40:56;99707.53;;;14.54;100.00
40730;BME280;26418;50.070;8.436;2022-10-16T00:44:01;99705.94;;;14.53;100.00
40730;BME280;26418;50.070;8.436;2022-10-16T00:46:31;99703.69;;;14.55;100.00
40730;BME280;26418;50.070;8.436;2022-10-16T00:51:34;99718.06;;;14.55;100.00
40730;BME280;26418;50.070;8.436;2022-10-16T00:54:02;99695.97;;;14.57;100.00
40730;BME280;26418;50.070;8.436;2022-10-16T00:56:28;99705.72;;;14.58;100.00
40730;BME280;26418;50.070;8.436;2022-10-16T00:58:53;99714.56;;;14.55;100.00
40730;BME280;26418;50.070;8.436;2022-10-16T01:01:19;99722.41;;;14.56;100.00
40730;BME280;26418;50.070;8.436;2022-10-16T01:03:44;99728.44;;;14.62;100.00
40730;BME280;26418;50.070;8.436;2022-10-16T01:06:23;99738.97;;;14.72;100.00
40730;BME280;26418;50.070;8.436;2022-10-16T01:09:06;99745.97;;;14.73;100.00
40730;BME280;26418;50.070;8.436;2022-10-16T01:11:44;99745.84;;;14.70;100.00
40730;BME280;26418;50.070;8.436;2022-10-16T01:15:14;99741.09;;;14.67;100.00
40730;BME280;26418;50.070;8.436;2022-10-16T01:18:25;99749.53;;;14.65;100.00
40730;BME280;26418;50.070;8.436;2022-10-16T01:20:32;99741.38;;;14.65;100.00
40730;BME280;26418;50.070;8.436;2022-10-16T01:23:21;99735.47;;;14.63;100.00
40730;BME280;26418;50.070;8.436;2022-10-16T01:28:44;99723.19;;;14.57;100.00
40730;BME280;26418;50.070;8.436;2022-10-16T01:31:13;99729.31;;;14.54;100.00
40730;BME280;26418;50.070;8.436;2022-10-16T01:33:42;99705.72;;;14.37;100.00
40730;BME280;26418;50.070;8.436;2022-10-16T01:36:13;99728.22;;;14.46;100.00
40730;BME280;26418;50.070;8.436;2022-10-16T01:38:40;99723.13;;;14.44;100.00
40730;BME280;26418;50.070;8.436;2022-10-16T01:41:14;99725.38;;;14.42;100.00
40730;BME280;26418;50.070;8.436;2022-10-16T01:43:45;99731.50;;;14.39;100.00
40730;BME280;26418;50.070;8.436;2022-10-16T01:46:13;99744.91;;;14.44;100.00
40730;BME280;26418;50.070;8.436;2022-10-16T01:48:40;99753.97;;;14.49;100.00
40730;BME280;26418;50.070;8.436;2022-10-16T01:51:10;99754.44;;;14.51;100.00
40730;BME280;26418;50.070;8.436;2022-10-16T01:53:37;99760.69;;;14.51;100.00
40730;BME280;26418;50.070;8.436;2022-10-16T01:56:07;99744.91;;;14.44;100.00
40730;BME280;26418;50.070;8.436;2022-10-16T01:58:37;99748.53;;;14.49;100.00
40730;BME280;26418;50.070;8.436;2022-10-16T02:01:07;99748.88;;;14.47;100.00
40730;BME280;26418;50.070;8.436;2022-10-16T02:03:35;99745.09;;;14.39;100.00
40730;BME280;26418;50.070;8.436;2022-10-16T02:06:02;99744.09;;;14.44;100.00
40730;BME280;26418;50.070;8.436;2022-10-16T02:08:29;99751.47;;;14.43;100.00
40730;BME280;26418;50.070;8.436;2022-10-16T02:10:57;99754.97;;;14.44;100.00
40730;BME280;26418;50.070;8.436;2022-10-16T02:13:27;99755.31;;;14.42;100.00
40730;BME280;26418;50.070;8.436;2022-10-16T02:15:54;99756.75;;;14.40;100.00
40730;BME280;26418;50.070;8.436;2022-10-16T02:18:20;99756.91;;;14.43;100.00
40730;BME280;26418;50.070;8.436;2022-10-16T02:20:53;99750.69;;;14.43;100.00
40730;BME280;26418;50.070;8.436;2022-10-16T02:23:28;99750.81;;;14.46;100.00
40730;BME280;26418;50.070;8.436;2022-10-16T02:25:58;99755.13;;;14.48;100.00
40730;BME280;26418;50.070;8.436;2022-10-16T02:28:27;99760.88;;;14.46;100.00
40730;BME280;26418;50.070;8.436;2022-10-16T02:31:02;99760.88;;;14.46;100.00
40730;BME280;26418;50.070;8.436;2022-10-16T02:33:29;99760.41;;;14.44;100.00
40730;BME280;26418;50.070;8.436;2022-10-16T02:35:57;99763.47;;;14.42;100.00
40730;BME280;26418;50.070;8.436;2022-10-16T02:38:23;99766.38;;;14.37;100.00
40730;BME280;26418;50.070;8.436;2022-10-16T02:40:49;99762.84;;;14.37;100.00
40730;BME280;26418;50.070;8.436;2022-10-16T02:43:15;99766.88;;;14.39;100.00
40730;BME280;26418;50.070;8.436;2022-10-16T02:45:41;99764.16;;;14.39;100.00
40730;BME280;26418;50.070;8.436;2022-10-16T02:48:06;99752.97;;;14.32;100.00
40730;BME280;26418;50.070;8.436;2022-10-16T02:50:31;99771.16;;;14.40;100.00
40730;BME280;26418;50.070;8.436;2022-10-16T02:52:57;99782.03;;;14.40;100.00
40730;BME280;26418;50.070;8.436;2022-10-16T02:55:22;99781.25;;;14.40;100.00
40730;BME280;26418;50.070;8.436;2022-10-16T02:57:47;99780.47;;;14.39;100.00
40730;BME280;26418;50.070;8.436;2022-10-16T03:00:15;99776.59;;;14.40;100.00
40730;BME280;26418;50.070;8.436;2022-10-16T03:02:40;99770.50;;;14.43;100.00
40730;BME280;26418;50.070;8.436;2022-10-16T03:05:06;99762.53;;;14.38;100.00
40730;BME280;26418;50.070;8.436;2022-10-16T03:07:32;99762.06;;;14.36;100.00
40730;BME280;26418;50.070;8.436;2022-10-16T03:09:57;99772.00;;;14.32;100.00
40730;BME280;26418;50.070;8.436;2022-10-16T03:12:26;99773.94;;;14.31;100.00
40730;BME280;26418;50.070;8.436;2022-10-16T03:14:51;99769.63;;;14.30;100.00
40730;BME280;26418;50.070;8.436;2022-10-16T03:17:16;99772.34;;;14.30;100.00
40730;BME280;26418;50.070;8.436;2022-10-16T03:19:42;99768.50;;;14.31;100.00
40730;BME280;26418;50.070;8.436;2022-10-16T03:22:07;99778.44;;;14.27;100.00
40730;BME280;26418;50.070;8.436;2022-10-16T03:24:33;99793.75;;;14.32;100.00
40730;BME280;26418;50.070;8.436;2022-10-16T03:26:58;99797.09;;;14.38;100.00
40730;BME280;26418;50.070;8.436;2022-10-16T03:29:24;99785.59;;;14.32;100.00
40730;BME280;26418;50.070;8.436;2022-10-16T03:31:50;99784.19;;;14.35;100.00
40730;BME280;26418;50.070;8.436;2022-10-16T03:34:16;99790.25;;;14.31;100.00
40730;BME280;26418;50.070;8.436;2022-10-16T03:36:41;99791.72;;;14.29;100.00
40730;BME280;26418;50.070;8.436;2022-10-16T03:39:06;99790.59;;;14.30;100.00
40730;BME280;26418;50.070;8.436;2022-10-16T03:41:32;99799.06;;;14.28;100.00
40730;BME280;26418;50.070;8.436;2022-10-16T03:43:57;99794.75;;;14.27;100.00
40730;BME280;26418;50.070;8.436;2022-10-16T03:46:22;99795.91;;;14.26;100.00
40730;BME280;26418;50.070;8.436;2022-10-16T03:48:48;99786.78;;;14.22;100.00
40730;BME280;26418;50.070;8.436;2022-10-16T03:51:13;99791.59;;;14.25;100.00
40730;BME280;26418;50.070;8.436;2022-10-16T03:53:38;99787.25;;;14.24;100.00
40730;BME280;26418;50.070;8.436;2022-10-16T03:56:04;99792.38;;;14.26;100.00
40730;BME280;26418;50.070;8.436;2022-10-16T03:58:29;99797.03;;;14.25;100.00
40730;BME280;26418;50.070;8.436;2022-10-16T04:00:55;99784.06;;;14.22;100.00
40730;BME280;26418;50.070;8.436;2022-10-16T04:03:20;99781.50;;;14.26;100.00
40730;BME280;26418;50.070;8.436;2022-10-16T04:05:46;99784.06;;;14.22;100.00
40730;BME280;26418;50.070;8.436;2022-10-16T04:08:11;99800.53;;;14.26;100.00
40730;BME280;26418;50.070;8.436;2022-10-16T04:10:37;99814.13;;;14.26;100.00
40730;BME280;26418;50.070;8.436;2022-10-16T04:13:02;99800.88;;;14.24;100.00
40730;BME280;26418;50.070;8.436;2022-10-16T04:15:28;99793.50;;;14.25;100.00
40730;BME280;26418;50.070;8.436;2022-10-16T04:17:53;99798.16;;;14.24;100.00
40730;BME280;26418;50.070;8.436;2022-10-16T04:20:18;99791.88;;;14.24;100.00
40730;BME280;26418;50.070;8.436;2022-10-16T04:22:44;99799.47;;;14.18;100.00
40730;BME280;26418;50.070;8.436;2022-10-16T04:25:10;99806.16;;;14.21;100.00
40730;BME280;26418;50.070;8.436;2022-10-16T04:27:36;99811.59;;;14.21;100.00
40730;BME280;26418;50.070;8.436;2022-10-16T04:30:02;99804.22;;;14.21;100.00
40730;BME280;26418;50.070;8.436;2022-10-16T04:32:28;99813.66;;;14.24;100.00
40730;BME280;26418;50.070;8.436;2022-10-16T04:34:53;99810.16;;;14.23;100.00
40730;BME280;26418;50.070;8.436;2022-10-16T04:37:19;99816.06;;;14.25;100.00
40730;BME280;26418;50.070;8.436;2022-10-16T04:39:47;99817.97;;;14.25;100.00
40730;BME280;26418;50.070;8.436;2022-10-16T04:42:13;99821.03;;;14.23;100.00
40730;BME280;26418;50.070;8.436;2022-10-16T04:44:38;99822.28;;;14.26;100.00
40730;BME280;26418;50.070;8.436;2022-10-16T04:47:03;99818.94;;;14.29;100.00
40730;BME280;26418;50.070;8.436;2022-10-16T04:49:29;99814.13;;;14.26;100.00
40730;BME280;26418;50.070;8.436;2022-10-16T04:51:55;99816.50;;;14.27;100.00
40730;BME280;26418;50.070;8.436;2022-10-16T04:54:20;99816.06;;;14.25;100.00
40730;BME280;26418;50.070;8.436;2022-10-16T04:56:45;99824.03;;;14.30;100.00
40730;BME280;26418;50.070;8.436;2022-10-16T04:59:16;99825.50;;;14.28;100.00
40730;BME280;26418;50.070;8.436;2022-10-16T05:01:41;99832.06;;;14.27;100.00
40730;BME280;26418;50.070;8.436;2022-10-16T05:04:07;99835.09;;;14.25;100.00
40730;BME280;26418;50.070;8.436;2022-10-16T05:06:32;99834.13;;;14.30;100.00
40730;BME280;26418;50.070;8.436;2022-10-16T05:08:58;99825.81;;;14.26;100.00
40730;BME280;26418;50.070;8.436;2022-10-16T05:11:23;99822.78;;;14.19;100.00
40730;BME280;26418;50.070;8.436;2022-10-16T05:13:48;99833.31;;;14.29;100.00
40730;BME280;26418;50.070;8.436;2022-10-16T05:16:14;99821.94;;;14.27;100.00
40730;BME280;26418;50.070;8.436;2022-10-16T05:18:39;99806.94;;;14.21;100.00
40730;BME280;26418;50.070;8.436;2022-10-16T05:21:04;99824.53;;;14.24;100.00
40730;BME280;26418;50.070;8.436;2022-10-16T05:23:31;99806.03;;;14.17;100.00
40730;BME280;26418;50.070;8.436;2022-10-16T05:25:58;99823.59;;;14.20;100.00
40730;BME280;26418;50.070;8.436;2022-10-16T05:28:27;99823.94;;;14.18;100.00
40730;BME280;26418;50.070;8.436;2022-10-16T05:30:53;99821.53;;;14.17;100.00
40730;BME280;26418;50.070;8.436;2022-10-16T05:33:24;99825.84;;;14.18;100.00
40730;BME280;26418;50.070;8.436;2022-10-16T05:35:51;99818.50;;;14.18;100.00
40730;BME280;26418;50.070;8.436;2022-10-16T05:38:17;99801.72;;;14.07;100.00
40730;BME280;26418;50.070;8.436;2022-10-16T05:40:43;99822.47;;;14.21;100.00
40730;BME280;26418;50.070;8.436;2022-10-16T05:43:08;99833.97;;;14.26;100.00
40730;BME280;26418;50.070;8.436;2022-10-16T05:45:34;99837.00;;;14.25;100.00
40730;BME280;26418;50.070;8.436;2022-10-16T05:48:00;99837.00;;;14.25;100.00
40730;BME280;26418;50.070;8.436;2022-10-16T05:50:25;99843.56;;;14.24;100.00
40730;BME280;26418;50.070;8.436;2022-10-16T05:52:51;99850.81;;;14.20;100.00
40730;BME280;26418;50.070;8.436;2022-10-16T05:55:17;99852.72;;;14.19;100.00
40730;BME280;26418;50.070;8.436;2022-10-16T05:57:42;99860.88;;;14.19;100.00
40730;BME280;26418;50.070;8.436;2022-10-16T06:00:08;99868.25;;;14.19;100.00
40730;BME280;26418;50.070;8.436;2022-10-16T06:02:34;99870.47;;;14.17;100.00
40730;BME280;26418;50.070;8.436;2022-10-16T06:04:59;99870.69;;;14.11;100.00
40730;BME280;26418;50.070;8.436;2022-10-16T06:07:25;99864.75;;;14.18;100.00
40730;BME280;26418;50.070;8.436;2022-10-16T06:09:51;99865.53;;;14.19;100.00
40730;BME280;26418;50.070;8.436;2022-10-16T06:12:17;99869.38;;;14.18;100.00
40730;BME280;26418;50.070;8.436;2022-10-16T06:14:42;99863.44;;;14.15;100.00
40730;BME280;26418;50.070;8.436;2022-10-16T06:17:08;99871.09;;;14.22;100.00
40730;BME280;26418;50.070;8.436;2022-10-16T06:19:33;99872.38;;;14.25;100.00
40730;BME280;26418;50.070;8.436;2022-10-16T06:21:58;99875.69;;;14.39;100.00
40730;BME280;26418;50.070;8.436;2022-10-16T06:24:24;99879.97;;;14.49;100.00
40730;BME280;26418;50.070;8.436;2022-10-16T06:26:50;99877.66;;;14.60;100.00
40730;BME280;26418;50.070;8.436;2022-10-16T06:29:15;99882.09;;;14.73;100.00
40730;BME280;26418;50.070;8.436;2022-10-16T06:31:40;99885.13;;;14.81;100.00
40730;BME280;26418;50.070;8.436;2022-10-16T06:34:09;99875.75;;;14.90;100.00
40730;BME280;26418;50.070;8.436;2022-10-16T06:36:36;99873.63;;;14.96;100.00
40730;BME280;26418;50.070;8.436;2022-10-16T06:39:01;99877.41;;;15.04;100.00
40730;BME280;26418;50.070;8.436;2022-10-16T06:41:26;99873.25;;;15.06;100.00
40730;BME280;26418;50.070;8.436;2022-10-16T06:43:52;99886.66;;;15.12;100.00
40730;BME280;26418;50.070;8.436;2022-10-16T06:46:20;99890.31;;;15.16;100.00
40730;BME280;26418;50.070;8.436;2022-10-16T06:48:46;99889.88;;;15.14;100.00
40730;BME280;26418;50.070;8.436;2022-10-16T06:51:19;99901.03;;;15.21;100.00
40730;BME280;26418;50.070;8.436;2022-10-16T06:53:50;99896.34;;;15.21;100.00
40730;BME280;26418;50.070;8.436;2022-10-16T06:56:20;99894.88;;;15.24;100.00
40730;BME280;26418;50.070;8.436;2022-10-16T06:58:47;99900.16;;;15.29;100.00
40730;BME280;26418;50.070;8.436;2022-10-16T07:01:13;99897.22;;;15.34;100.00
40730;BME280;26418;50.070;8.436;2022-10-16T07:03:41;99898.69;;;15.32;100.00
40730;BME280;26418;50.070;8.436;2022-10-16T07:06:08;99903.63;;;15.38;100.00
40730;BME280;26418;50.070;8.436;2022-10-16T07:08:35;99912.38;;;15.44;100.00
40730;BME280;26418;50.070;8.436;2022-10-16T07:11:03;99907.50;;;15.50;100.00
40730;BME280;26418;50.070;8.436;2022-10-16T07:13:28;99905.50;;;15.59;99.91
40730;BME280;26418;50.070;8.436;2022-10-16T07:15:54;99911.22;;;15.66;99.22
40730;BME280;26418;50.070;8.436;2022-10-16T07:18:19;99918.06;;;15.72;98.37
40730;BME280;26418;50.070;8.436;2022-10-16T07:20:45;99927.16;;;15.77;97.88
40730;BME280;26418;50.070;8.436;2022-10-16T07:23:10;99939.78;;;15.81;97.42
40730;BME280;26418;50.070;8.436;2022-10-16T07:25:35;99943.81;;;15.84;96.89
40730;BME280;26418;50.070;8.436;2022-10-16T07:28:00;99949.06;;;15.89;96.53
40730;BME280;26418;50.070;8.436;2022-10-16T07:30:26;99945.22;;;15.90;96.19
40730;BME280;26418;50.070;8.436;2022-10-16T07:32:51;99946.59;;;15.96;95.99
40730;BME280;26418;50.070;8.436;2022-10-16T07:35:16;99951.34;;;15.99;95.79
40730;BME280;26418;50.070;8.436;2022-10-16T07:37:46;99960.47;;;16.03;94.90
40730;BME280;26418;50.070;8.436;2022-10-16T07:40:11;99965.94;;;16.03;94.92
40730;BME280;26418;50.070;8.436;2022-10-16T07:42:36;99973.19;;;15.99;94.10
40730;BME280;26418;50.070;8.436;2022-10-16T07:45:02;99974.22;;;15.95;93.96
40730;BME280;26418;50.070;8.436;2022-10-16T07:47:27;99971.00;;;15.93;94.70
40730;BME280;26418;50.070;8.436;2022-10-16T07:49:53;99959.28;;;15.92;94.47
40730;BME280;26418;50.070;8.436;2022-10-16T07:52:18;99974.66;;;15.97;94.50
40730;BME280;26418;50.070;8.436;2022-10-16T07:54:43;99979.09;;;16.01;93.48
40730;BME280;26418;50.070;8.436;2022-10-16T07:57:09;99988.75;;;15.99;93.53
40730;BME280;26418;50.070;8.436;2022-10-16T07:59:34;99989.41;;;15.96;94.27
40730;BME280;26418;50.070;8.436;2022-10-16T08:01:59;99998.47;;;15.87;94.16
40730;BME280;26418;50.070;8.436;2022-10-16T08:04:25;100004.28;;;15.86;94.37
40730;BME280;26418;50.070;8.436;2022-10-16T08:06:50;100000.13;;;15.80;94.33
40730;BME280;26418;50.070;8.436;2022-10-16T08:09:15;100007.06;;;15.77;95.22
40730;BME280;26418;50.070;8.436;2022-10-16T08:11:41;100013.94;;;15.75;96.06
40730;BME280;26418;50.070;8.436;2022-10-16T08:14:06;100019.75;;;15.73;95.90
40730;BME280;26418;50.070;8.436;2022-10-16T08:16:32;100014.16;;;15.69;95.76
40730;BME280;26418;50.070;8.436;2022-10-16T08:18:57;100018.41;;;15.58;96.16
40730;BME280;26418;50.070;8.436;2022-10-16T08:21:22;100023.28;;;15.52;96.21
40730;BME280;26418;50.070;8.436;2022-10-16T08:23:49;100026.31;;;15.51;96.91
40730;BME280;26418;50.070;8.436;2022-10-16T08:26:14;100014.66;;;15.41;97.58
40730;BME280;26418;50.070;8.436;2022-10-16T08:28:40;100027.44;;;15.50;97.77
40730;BME280;26418;50.070;8.436;2022-10-16T08:31:10;100028.91;;;15.47;97.53
40730;BME280;26418;50.070;8.436;2022-10-16T08:33:36;100024.56;;;15.46;98.02
40730;BME280;26418;50.070;8.436;2022-10-16T08:36:04;100037.19;;;15.60;97.42
40730;BME280;26418;50.070;8.436;2022-10-16T08:38:29;100034.25;;;15.65;97.24
40730;BME280;26418;50.070;8.436;2022-10-16T08:44:28;100058.06;;;15.77;96.90
40730;BME280;26418;50.070;8.436;2022-10-16T08:49:33;100058.91;;;15.98;95.80
40730;BME280;26418;50.070;8.436;2022-10-16T08:51:58;100058.28;;;16.14;95.32
40730;BME280;26418;50.070;8.436;2022-10-16T08:54:32;100057.66;;;16.29;95.04
40730;BME280;26418;50.070;8.436;2022-10-16T08:57:14;100057.25;;;16.40;93.57
40730;BME280;26418;50.070;8.436;2022-10-16T08:59:41;100058.97;;;16.44;92.22
40730;BME280;26418;50.070;8.436;2022-10-16T09:02:24;100078.19;;;16.48;91.26
40730;BME280;26418;50.070;8.436;2022-10-16T09:07:46;100082.81;;;16.35;91.49
40730;BME280;26418;50.070;8.436;2022-10-16T09:10:30;100091.53;;;16.28;92.17
40730;BME280;26418;50.070;8.436;2022-10-16T09:15:40;100100.06;;;16.27;92.35
40730;BME280;26418;50.070;8.436;2022-10-16T09:18:34;100103.81;;;16.22;91.48
40730;BME280;26418;50.070;8.436;2022-10-16T09:23:37;100108.53;;;16.13;92.11
40730;BME280;26418;50.070;8.436;2022-10-16T09:26:05;100110.66;;;16.07;92.26
40730;BME280;26418;50.070;8.436;2022-10-16T09:28:34;100116.19;;;15.98;92.89
40730;BME280;26418;50.070;8.436;2022-10-16T09:30:59;100121.50;;;15.95;93.48
40730;BME280;26418;50.070;8.436;2022-10-16T09:33:29;100127.94;;;15.90;93.98
40730;BME280;26418;50.070;8.436;2022-10-16T09:35:56;100114.50;;;15.85;94.29
40730;BME280;26418;50.070;8.436;2022-10-16T09:38:29;100122.16;;;15.83;94.84
40730;BME280;26418;50.070;8.436;2022-10-16T09:40:57;100117.41;;;15.80;95.46
40730;BME280;26418;50.070;8.436;2022-10-16T09:43:31;100127.13;;;15.90;95.86
40730;BME280;26418;50.070;8.436;2022-10-16T09:48:43;100140.72;;;15.98;95.71
40730;BME280;26418;50.070;8.436;2022-10-16T09:51:26;100138.44;;;16.00;95.97
40730;BME280;26418;50.070;8.436;2022-10-16T09:54:00;100133.13;;;16.04;96.16
40730;BME280;26418;50.070;8.436;2022-10-16T09:56:31;100134.81;;;16.17;96.69
40730;BME280;26418;50.070;8.436;2022-10-16T10:01:41;100144.44;;;16.57;96.15
40730;BME280;26418;50.070;8.436;2022-10-16T10:04:08;100130.47;;;16.71;95.49
40730;BME280;26418;50.070;8.436;2022-10-16T10:06:36;100141.56;;;16.87;94.95
40730;BME280;26418;50.070;8.436;2022-10-16T10:09:15;100131.84;;;16.99;94.40
40730;BME280;26418;50.070;8.436;2022-10-16T10:14:19;100139.38;;;17.26;93.42
40730;BME280;26418;50.070;8.436;2022-10-16T10:16:46;100141.78;;;17.40;92.75
40730;BME280;26418;50.070;8.436;2022-10-16T10:19:19;100136.44;;;17.56;92.10
40730;BME280;26418;50.070;8.436;2022-10-16T10:21:45;100132.44;;;17.66;90.42
40730;BME280;26418;50.070;8.436;2022-10-16T10:24:13;100127.88;;;17.83;90.27
40730;BME280;26418;50.070;8.436;2022-10-16T10:26:43;100135.59;;;18.05;89.59
40730;BME280;26418;50.070;8.436;2022-10-16T10:32:25;100125.97;;;18.52;85.78
40730;BME280;26418;50.070;8.436;2022-10-16T10:38:43;100126.28;;;19.08;81.06
40730;BME280;26418;50.070;8.436;2022-10-16T10:46:30;100121.75;;;19.47;80.89
40730;BME280;26418;50.070;8.436;2022-10-16T10:54:37;100124.28;;;19.56;79.71
40730;BME280;26418;50.070;8.436;2022-10-16T10:57:10;100132.03;;;19.51;79.32
40730;BME280;26418;50.070;8.436;2022-10-16T11:06:00;100127.78;;;19.53;80.10
40730;BME280;26418;50.070;8.436;2022-10-16T11:08:48;100127.31;;;19.51;79.09
40730;BME280;26418;50.070;8.436;2022-10-16T11:11:30;100133.63;;;19.52;78.24
40730;BME280;26418;50.070;8.436;2022-10-16T11:22:12;100128.25;;;20.10;76.45
40730;BME280;26418;50.070;8.436;2022-10-16T11:27:50;100118.38;;;20.25;74.22
40730;BME280;26418;50.070;8.436;2022-10-16T11:30:22;100102.25;;;20.24;74.82
40730;BME280;26418;50.070;8.436;2022-10-16T11:38:30;100135.28;;;20.27;75.06
40730;BME280;26418;50.070;8.436;2022-10-16T11:40:57;100128.78;;;20.36;75.40
40730;BME280;26418;50.070;8.436;2022-10-16T11:44:00;100113.72;;;20.49;75.56
40730;BME280;26418;50.070;8.436;2022-10-16T11:46:32;100112.84;;;20.84;74.19
40730;BME280;26418;50.070;8.436;2022-10-16T11:49:08;100099.66;;;20.94;73.28
40730;BME280;26418;50.070;8.436;2022-10-16T11:51:39;100095.19;;;21.09;72.90
40730;BME280;26418;50.070;8.436;2022-10-16T11:54:33;100103.97;;;21.18;72.58
40730;BME280;26418;50.070;8.436;2022-10-16T11:57:09;100094.31;;;21.04;72.67
40730;BME280;26418;50.070;8.436;2022-10-16T11:59:43;100101.34;;;21.02;73.11
40730;BME280;26418;50.070;8.436;2022-10-16T12:02:28;100104.59;;;21.08;71.54
40730;BME280;26418;50.070;8.436;2022-10-16T12:05:17;100100.03;;;21.15;71.02
40730;BME280;26418;50.070;8.436;2022-10-16T12:10:34;100106.53;;;21.30;69.88
40730;BME280;26418;50.070;8.436;2022-10-16T12:13:04;100109.38;;;21.38;69.59
40730;BME280;26418;50.070;8.436;2022-10-16T12:15:32;100108.88;;;21.55;69.82
40730;BME280;26418;50.070;8.436;2022-10-16T12:17:58;100104.34;;;21.66;70.19
40730;BME280;26418;50.070;8.436;2022-10-16T12:20:32;100110.72;;;21.74;69.10
40730;BME280;26418;50.070;8.436;2022-10-16T12:23:05;100114.00;;;21.57;68.55
40730;BME280;26418;50.070;8.436;2022-10-16T12:25:33;100113.72;;;21.39;69.48
40730;BME280;26418;50.070;8.436;2022-10-16T12:28:00;100126.88;;;21.26;69.49
40730;BME280;26418;50.070;8.436;2022-10-16T12:30:29;100121.59;;;21.13;70.47
40730;BME280;26418;50.070;8.436;2022-10-16T12:35:33;100121.47;;;21.06;71.03
40730;BME280;26418;50.070;8.436;2022-10-16T12:38:19;100125.88;;;21.11;72.18
40730;BME280;26418;50.070;8.436;2022-10-16T12:40:53;100136.13;;;21.14;71.70
40730;BME280;26418;50.070;8.436;2022-10-16T12:45:45;100140.66;;;21.02;70.29
40730;BME280;26418;50.070;8.436;2022-10-16T12:48:22;100136.84;;;20.87;70.67
40730;BME280;26418;50.070;8.436;2022-10-16T12:50:48;100127.75;;;20.64;70.52
40730;BME280;26418;50.070;8.436;2022-10-16T12:53:19;100124.66;;;20.46;70.61
40730;BME280;26418;50.070;8.436;2022-10-16T12:56:02;100134.06;;;20.25;71.82
40730;BME280;26418;50.070;8.436;2022-10-16T12:58:33;100133.91;;;20.18;72.27
40730;BME280;26418;50.070;8.436;2022-10-16T13:01:10;100133.75;;;20.10;72.80
40730;BME280;26418;50.070;8.436;2022-10-16T13:03:55;100120.69;;;20.04;72.75
40730;BME280;26418;50.070;8.436;2022-10-16T13:09:02;100130.84;;;20.03;72.82
40730;BME280;26418;50.070;8.436;2022-10-16T13:20:16;100137.63;;;19.90;73.92
40730;BME280;26418;50.070;8.436;2022-10-16T13:23:22;100125.88;;;19.89;73.60
40730;BME280;26418;50.070;8.436;2022-10-16T13:25:48;100143.56;;;19.92;73.88
40730;BME280;26418;50.070;8.436;2022-10-16T13:28:22;100136.94;;;19.93;74.23
40730;BME280;26418;50.070;8.436;2022-10-16T13:30:54;100130.38;;;19.98;74.49
40730;BME280;26418;50.070;8.436;2022-10-16T13:33:27;100132.88;;;20.06;73.92
40730;BME280;26418;50.070;8.436;2022-10-16T13:35:56;100134.63;;;20.15;74.22
40730;BME280;26418;50.070;8.436;2022-10-16T13:38:30;100128.56;;;20.25;73.62
40730;BME280;26418;50.070;8.436;2022-10-16T13:41:15;100130.59;;;20.28;73.65
40730;BME280;26418;50.070;8.436;2022-10-16T13:43:47;100130.31;;;20.33;73.88
40730;BME280;26418;50.070;8.436;2022-10-16T13:46:17;100125.25;;;20.35;72.94
40730;BME280;26418;50.070;8.436;2022-10-16T13:48:44;100121.78;;;20.38;73.72
40730;BME280;26418;50.070;8.436;2022-10-16T13:51:14;100119.16;;;20.46;73.31
40730;BME280;26418;50.070;8.436;2022-10-16T13:53:41;100122.72;;;20.46;73.11
40730;BME280;26418;50.070;8.436;2022-10-16T13:56:10;100126.47;;;20.38;72.57
40730;BME280;26418;50.070;8.436;2022-10-16T13:58:36;100120.03;;;20.30;73.35
40730;BME280;26418;50.070;8.436;2022-10-16T14:01:04;100111.78;;;20.30;73.77
40730;BME280;26418;50.070;8.436;2022-10-16T14:03:33;100109.34;;;20.25;73.96
40730;BME280;26418;50.070;8.436;2022-10-16T14:06:03;100106.47;;;20.18;74.57
40730;BME280;26418;50.070;8.436;2022-10-16T14:08:30;100102.63;;;20.22;74.72
40730;BME280;26418;50.070;8.436;2022-10-16T14:10:57;100112.66;;;20.15;75.11
40730;BME280;26418;50.070;8.436;2022-10-16T14:13:37;100136.94;;;20.13;75.61
40730;BME280;26418;50.070;8.436;2022-10-16T14:16:11;100126.97;;;20.04;75.44
40730;BME280;26418;50.070;8.436;2022-10-16T14:18:45;100142.13;;;19.98;75.96
40730;BME280;26418;50.070;8.436;2022-10-16T14:21:13;100121.63;;;19.92;76.28
40730;BME280;26418;50.070;8.436;2022-10-16T14:23:41;100122.41;;;19.92;76.55
40730;BME280;26418;50.070;8.436;2022-10-16T14:28:36;100135.13;;;20.01;76.33
40730;BME280;26418;50.070;8.436;2022-10-16T14:31:32;100136.09;;;20.08;76.01